Terminal Aerodrome Forecast
Issued by NWS Green Bay, WI

Home | Current Version | Previous Version | Text Only | Print | Product List | Glossary Off
Versions: 1 2 3 4 5 6 7 8 9 10 11 12 13 14 15 16 17 18 19 20 21 22 23 24 25 26 27 28 29 30 31 32 33 34 35 36 37 38 39 40 41 42 43

000
FTUS43 KGRB 280352 AAD
TAFGRB
TAF AMD
KGRB 280352Z 2804/2824 11008KT 6SM BR SCT006 OVC040
      TEMPO 2804/2807 2SM -SHRA BR BKN006
     FM280700 15005KT 3SM BR OVC020
     FM281200 17007KT 3SM BR OVC008
     FM281400 18009KT 3SM BR OVC003
     FM281500 18010KT P6SM VCSH OVC003
     FM282100 18012KT P6SM VCSH BKN040=

USA.gov is the U.S. government's official web portal to all federal, state and local government web resources and services.